Time;durP1;ratioP1;P1;durP2;ratioP2;P2;SDS_P1;SDS_P2;PMS_P1;PMS_P2;Temp;Humidity;BMP_temperature;BMP_pressure;BME280_temperature;BME280_humidity;BME280_pressure;Samples;Min_cycle;Max_cycle;Signal;HPM_P1;HPM_P2
2022/03/03 00:01:58;;;;;;;50.15;20.02;;;;;;;4.18;57.36;101972.34;5036274;28;20326;-48
2022/03/03 00:04:23;;;;;;;47.20;20.15;;;;;;;4.13;57.18;101969.19;5030063;28;20596;-47
2022/03/03 00:06:48;;;;;;;46.40;18.50;;;;;;;4.12;56.89;101962.13;5027310;28;20041;-47
2022/03/03 00:09:14;;;;;;;44.63;18.45;;;;;;;4.09;57.20;101965.03;5031806;28;20033;-49
2022/03/03 00:11:39;;;;;;;46.45;18.00;;;;;;;4.01;57.30;101975.41;5034126;28;20053;-47
2022/03/03 00:14:05;;;;;;;45.28;18.65;;;;;;;4.01;57.75;101964.75;5036026;28;20079;-48
2022/03/03 00:16:30;;;;;;;48.80;19.90;;;;;;;3.95;58.66;101965.19;5034914;28;20037;-48
2022/03/03 00:18:55;;;;;;;47.55;19.80;;;;;;;3.92;58.55;101965.41;5035272;28;20079;-49
2022/03/03 00:21:21;;;;;;;44.15;19.80;;;;;;;3.96;58.18;101967.75;5034826;28;20156;-48
2022/03/03 00:23:46;;;;;;;51.35;20.27;;;;;;;3.90;58.51;101962.88;5035914;28;20052;-49
2022/03/03 00:26:11;;;;;;;47.28;19.45;;;;;;;3.83;59.19;101960.75;5036122;28;20389;-48
2022/03/03 00:28:36;;;;;;;46.33;19.75;;;;;;;3.79;58.88;101959.25;5035069;28;20029;-48
2022/03/03 00:31:02;;;;;;;48.28;20.25;;;;;;;3.82;59.08;101956.38;5034559;28;20030;-49
2022/03/03 00:33:28;;;;;;;48.92;19.80;;;;;;;3.83;58.08;101958.09;5035315;28;20040;-48
2022/03/03 00:35:53;;;;;;;48.85;20.08;;;;;;;3.83;58.35;101950.09;5034832;28;20459;-48
2022/03/03 00:38:18;;;;;;;45.78;18.38;;;;;;;3.78;58.46;101950.44;5026956;28;20030;-47
2022/03/03 00:40:44;;;;;;;46.03;18.50;;;;;;;3.77;58.20;101945.22;5030493;28;20044;-48
2022/03/03 00:43:09;;;;;;;47.58;19.70;;;;;;;3.73;59.00;101949.91;5034419;28;20030;-48
2022/03/03 00:45:35;;;;;;;42.47;18.58;;;;;;;3.73;58.04;101945.41;5034653;28;20036;-47
2022/03/03 00:48:01;;;;;;;46.97;19.48;;;;;;;3.72;58.12;101943.72;5034398;28;20049;-48
2022/03/03 00:50:27;;;;;;;53.05;20.65;;;;;;;3.68;58.84;101952.03;5035201;28;20025;-48
2022/03/03 00:52:52;;;;;;;49.13;19.10;;;;;;;3.66;59.05;101946.84;5033722;28;20026;-47
2022/03/03 00:55:17;;;;;;;49.15;19.92;;;;;;;3.62;58.71;101948.00;5035132;28;20029;-48
2022/03/03 00:57:43;;;;;;;55.53;19.33;;;;;;;3.56;58.75;101943.13;5034739;28;20049;-48
2022/03/03 01:00:09;;;;;;;47.45;18.52;;;;;;;3.59;58.97;101937.59;5026738;28;20480;-49
2022/03/03 01:02:35;;;;;;;44.47;18.80;;;;;;;3.54;59.07;101944.19;5034328;28;20044;-48
2022/03/03 01:05:00;;;;;;;47.92;18.67;;;;;;;3.53;58.80;101943.38;5032283;28;20442;-50
2022/03/03 01:07:25;;;;;;;50.00;20.48;;;;;;;3.56;58.61;101943.13;5034270;28;20049;-48
2022/03/03 01:09:51;;;;;;;50.90;18.85;;;;;;;3.48;58.91;101940.16;5025891;28;20110;-49
2022/03/03 01:12:16;;;;;;;49.75;19.63;;;;;;;3.45;58.53;101935.91;5035005;28;20040;-50
2022/03/03 01:14:42;;;;;;;42.55;18.90;;;;;;;3.46;59.05;101928.78;5034112;28;20057;-48
2022/03/03 01:17:07;;;;;;;47.38;19.02;;;;;;;3.44;59.39;101933.34;5034741;28;20491;-49
2022/03/03 01:19:33;;;;;;;48.05;19.63;;;;;;;3.43;59.07;101929.00;5033812;28;20025;-50
2022/03/03 01:21:58;;;;;;;46.53;18.50;;;;;;;3.39;59.15;101925.69;5035021;28;20112;-47
2022/03/03 01:24:24;;;;;;;50.63;20.02;;;;;;;3.35;59.10;101918.06;5034763;28;20030;-48
2022/03/03 01:26:49;;;;;;;52.42;20.08;;;;;;;3.40;59.50;101921.25;5022920;28;20095;-48
2022/03/03 01:29:14;;;;;;;50.33;18.95;;;;;;;3.35;59.91;101910.91;5033895;28;20058;-50
2022/03/03 01:31:40;;;;;;;46.80;19.60;;;;;;;3.35;59.05;101908.25;5033758;28;20033;-49
2022/03/03 01:34:08;;;;;;;45.13;18.35;;;;;;;3.31;58.82;101906.75;5031800;28;20104;-49
2022/03/03 01:36:34;;;;;;;46.55;19.58;;;;;;;3.33;59.83;101898.69;5034067;28;20481;-48
2022/03/03 01:39:00;;;;;;;50.20;20.45;;;;;;;3.29;59.54;101893.59;5033935;28;20029;-48
2022/03/03 01:41:26;;;;;;;50.55;19.65;;;;;;;3.23;60.27;101893.16;5033089;28;20075;-47
2022/03/03 01:43:51;;;;;;;54.53;20.73;;;;;;;3.14;60.20;101899.13;5033544;28;20037;-48
2022/03/03 01:46:16;;;;;;;51.95;19.55;;;;;;;3.11;60.84;101889.56;5034000;28;20029;-48
2022/03/03 01:48:45;;;;;;;46.30;18.92;;;;;;;3.07;61.46;101893.38;5033258;28;20096;-48
2022/03/03 01:51:11;;;;;;;47.05;20.08;;;;;;;3.06;61.80;101889.03;5024026;28;20508;-50
2022/03/03 01:53:37;;;;;;;48.42;19.35;;;;;;;3.00;61.95;101892.97;5033200;28;20026;-49
2022/03/03 01:56:03;;;;;;;50.88;21.63;;;;;;;2.95;62.35;101889.78;5033710;28;20021;-50
2022/03/03 01:58:28;;;;;;;53.95;20.90;;;;;;;2.98;62.37;101883.41;5032790;28;20360;-50
2022/03/03 02:00:53;;;;;;;49.17;19.63;;;;;;;2.99;61.81;101879.78;5032778;28;20133;-48
2022/03/03 02:03:19;;;;;;;51.92;20.85;;;;;;;2.99;61.70;101880.63;5031829;28;20021;-49
2022/03/03 02:05:45;;;;;;;51.20;18.77;;;;;;;3.03;61.95;101868.81;5030937;28;20508;-48
2022/03/03 02:08:10;;;;;;;51.38;21.17;;;;;;;3.04;61.90;101873.16;5032997;28;20022;-49
2022/03/03 02:10:35;;;;;;;53.72;20.45;;;;;;;2.97;62.29;101877.19;5031075;28;20037;-49
2022/03/03 02:13:01;;;;;;;49.00;19.70;;;;;;;2.89;62.96;101868.91;5023600;28;21072;-48
2022/03/03 02:15:26;;;;;;;48.60;20.70;;;;;;;2.89;62.22;101874.22;5033152;28;20166;-48
2022/03/03 02:17:52;;;;;;;57.08;21.63;;;;;;;2.95;62.24;101859.66;5032876;28;20038;-50
2022/03/03 02:20:24;;;;;;;55.33;21.00;;;;;;;2.92;62.10;101857.22;5033202;28;20049;-48
2022/03/03 02:22:50;;;;;;;50.25;21.02;;;;;;;2.91;62.66;101858.19;5016573;28;20041;-48
2022/03/03 02:25:17;;;;;;;54.90;21.20;;;;;;;2.86;62.33;101859.34;5021796;28;20030;-48
2022/03/03 02:27:44;;;;;;;53.17;21.67;;;;;;;2.83;63.19;101856.91;5020623;28;20029;-47
2022/03/03 02:30:11;;;;;;;54.05;21.40;;;;;;;2.77;62.51;101854.69;5016370;28;20041;-49
2022/03/03 02:32:36;;;;;;;52.38;21.00;;;;;;;2.73;63.31;101857.66;5018687;28;20029;-49
2022/03/03 02:35:01;;;;;;;53.00;22.02;;;;;;;2.68;63.78;101855.28;5024635;28;20033;-48
2022/03/03 02:37:38;;;;;;;54.92;22.08;;;;;;;2.70;63.47;101858.72;5031778;28;20029;-48
2022/03/03 02:40:06;;;;;;;51.97;21.40;;;;;;;2.71;63.30;101852.44;5014947;28;20484;-48
2022/03/03 02:42:32;;;;;;;53.80;20.00;;;;;;;2.72;63.31;101853.31;5014402;28;20068;-48
2022/03/03 02:44:57;;;;;;;56.33;21.17;;;;;;;2.68;63.22;101849.97;5028901;28;20061;-48
2022/03/03 02:47:22;;;;;;;47.42;20.98;;;;;;;2.65;63.42;101844.88;5013409;28;20021;-48
2022/03/03 02:49:47;;;;;;;54.47;21.60;;;;;;;2.61;63.16;101841.59;5028800;28;20050;-49
2022/03/03 02:52:13;;;;;;;50.88;20.30;;;;;;;2.60;63.77;101842.53;5030610;28;20026;-47
2022/03/03 02:54:38;;;;;;;53.58;21.60;;;;;;;2.59;63.88;101847.97;5023633;28;20510;-48
2022/03/03 02:59:48;;;;;;;53.38;20.60;;;;;;;2.56;63.32;101841.06;5022557;28;20578;-49
2022/03/03 03:02:13;;;;;;;54.28;20.48;;;;;;;2.57;63.72;101831.28;5030386;28;20044;-48
2022/03/03 03:04:39;;;;;;;50.28;20.58;;;;;;;2.57;63.68;101839.25;5032857;28;20042;-47
2022/03/03 03:07:04;;;;;;;60.15;21.23;;;;;;;2.56;63.50;101835.75;5037224;28;20025;-47
2022/03/03 03:09:30;;;;;;;52.63;20.67;;;;;;;2.53;63.85;101827.16;5037374;28;20033;-48
2022/03/03 03:11:55;;;;;;;52.47;20.52;;;;;;;2.47;63.91;101830.22;5034244;28;20053;-48
2022/03/03 03:14:20;;;;;;;54.97;21.15;;;;;;;2.41;64.30;101829.66;5033557;28;20034;-47
2022/03/03 03:16:46;;;;;;;54.83;22.08;;;;;;;2.38;64.49;101831.69;5037921;28;20032;-47
2022/03/03 03:19:11;;;;;;;50.30;20.88;;;;;;;2.29;64.52;101825.22;5037652;28;20061;-48
2022/03/03 03:21:36;;;;;;;54.42;20.80;;;;;;;2.20;65.06;101829.31;5036763;28;20021;-47
2022/03/03 03:24:02;;;;;;;59.10;22.15;;;;;;;2.28;64.79;101830.63;5036581;28;20052;-48
2022/03/03 03:26:27;;;;;;;53.55;20.95;;;;;;;2.32;65.22;101835.63;5037155;28;20139;-49
2022/03/03 03:28:53;;;;;;;53.38;21.58;;;;;;;2.31;64.85;101833.06;5037445;28;20025;-49
2022/03/03 03:31:18;;;;;;;55.53;21.27;;;;;;;2.35;64.66;101835.41;5036382;28;20124;-48
2022/03/03 03:33:43;;;;;;;51.88;21.27;;;;;;;2.36;64.39;101828.28;5035649;28;20045;-50
2022/03/03 03:36:09;;;;;;;54.65;21.33;;;;;;;2.41;64.40;101816.38;5034339;28;20068;-49
2022/03/03 03:38:34;;;;;;;46.80;20.08;;;;;;;2.44;64.62;101825.09;5036298;28;20025;-50
2022/03/03 03:41:00;;;;;;;50.80;21.27;;;;;;;2.39;64.62;101823.59;5036893;28;20041;-49
2022/03/03 03:43:25;;;;;;;56.38;22.08;;;;;;;2.40;64.37;101820.00;5036395;28;20036;-50
2022/03/03 03:45:50;;;;;;;54.67;19.75;;;;;;;2.38;64.71;101811.28;5036755;28;20029;-48
2022/03/03 03:48:16;;;;;;;53.50;21.60;;;;;;;2.39;64.36;101815.63;5036564;28;20052;-50
2022/03/03 03:50:41;;;;;;;54.33;20.40;;;;;;;2.32;64.52;101819.69;5036178;28;20025;-50
2022/03/03 03:53:06;;;;;;;57.97;21.67;;;;;;;2.31;64.95;101817.13;5034825;28;20033;-48
2022/03/03 03:55:31;;;;;;;61.60;21.48;;;;;;;2.21;65.30;101806.25;5036099;28;20459;-48
2022/03/03 03:57:57;;;;;;;53.47;21.48;;;;;;;2.14;65.83;101797.03;5036970;28;20104;-46
2022/03/03 04:00:22;;;;;;;56.58;22.05;;;;;;;2.03;65.53;101804.84;5036207;28;20183;-49
2022/03/03 04:02:47;;;;;;;60.17;22.25;;;;;;;1.96;66.30;101802.59;5033339;28;20128;-48
2022/03/03 04:05:13;;;;;;;56.53;22.63;;;;;;;1.91;66.46;101802.06;5033432;28;20032;-52
2022/03/03 04:07:40;;;;;;;59.65;22.30;;;;;;;1.87;66.99;101812.97;5036987;28;20361;-47
2022/03/03 04:10:05;;;;;;;61.13;22.88;;;;;;;1.94;66.48;101804.50;5036678;28;20026;-49
2022/03/03 04:12:31;;;;;;;59.38;22.50;;;;;;;1.87;66.67;101805.03;5036667;28;20096;-50
2022/03/03 04:14:56;;;;;;;57.05;21.20;;;;;;;1.84;66.89;101806.06;5035264;28;20071;-47
2022/03/03 04:17:21;;;;;;;51.95;22.20;;;;;;;1.82;67.16;101799.16;5034406;28;20025;-48
2022/03/03 04:19:47;;;;;;;52.88;21.58;;;;;;;1.79;67.32;101802.91;5035700;28;20035;-48
2022/03/03 04:22:12;;;;;;;53.90;21.02;;;;;;;1.78;66.28;101795.88;5035945;28;20481;-50
2022/03/03 04:24:38;;;;;;;57.90;22.15;;;;;;;1.79;66.26;101789.63;5032923;28;20508;-48
2022/03/03 04:27:04;;;;;;;61.88;22.50;;;;;;;1.77;66.22;101788.88;5026017;28;20473;-50
2022/03/03 04:29:29;;;;;;;63.45;23.25;;;;;;;1.76;65.93;101795.13;5035692;28;20147;-48
2022/03/03 04:31:56;;;;;;;50.10;22.25;;;;;;;1.81;66.29;101789.50;5035960;28;20472;-48
2022/03/03 04:34:22;;;;;;;49.88;20.90;;;;;;;1.83;66.48;101788.47;5027334;28;20120;-50
2022/03/03 04:36:47;;;;;;;65.95;22.40;;;;;;;1.95;65.75;101786.81;5035090;28;20025;-47
2022/03/03 04:39:13;;;;;;;50.38;20.95;;;;;;;1.93;65.56;101786.88;5035497;28;20034;-49
2022/03/03 04:41:39;;;;;;;60.15;22.50;;;;;;;1.94;66.20;101785.94;5035209;28;20083;-46
2022/03/03 04:44:05;;;;;;;53.20;21.58;;;;;;;1.93;65.74;101784.22;5033239;28;20037;-49
2022/03/03 04:46:30;;;;;;;60.67;22.42;;;;;;;1.88;65.81;101781.03;5030292;28;20040;-50
2022/03/03 04:48:59;;;;;;;54.08;21.55;;;;;;;1.85;66.03;101780.41;5035031;28;20041;-47
2022/03/03 04:51:25;;;;;;;55.38;22.20;;;;;;;1.83;66.09;101787.59;5034453;28;20032;-49
2022/03/03 04:53:50;;;;;;;58.97;23.40;;;;;;;1.80;65.99;101790.47;5035012;28;20021;-48
2022/03/03 04:56:16;;;;;;;50.25;19.98;;;;;;;1.71;66.23;101783.94;5019321;28;20100;-50
2022/03/03 04:58:42;;;;;;;59.50;22.90;;;;;;;1.71;66.12;101783.94;5025305;28;20077;-48
2022/03/03 05:01:07;;;;;;;58.25;23.52;;;;;;;1.69;66.74;101785.88;5027063;28;20026;-48
2022/03/03 05:03:32;;;;;;;56.60;21.98;;;;;;;1.65;66.70;101790.50;5023115;28;20603;-47
2022/03/03 05:05:58;;;;;;;59.53;21.02;;;;;;;1.60;66.54;101786.47;5033856;28;20037;-48
2022/03/03 05:08:23;;;;;;;56.38;22.00;;;;;;;1.64;66.87;101788.81;5034477;28;20022;-51
2022/03/03 05:10:48;;;;;;;56.00;23.38;;;;;;;1.58;66.59;101785.72;5034763;28;20033;-48
2022/03/03 05:13:14;;;;;;;59.58;22.65;;;;;;;1.49;67.00;101780.06;5034540;28;20032;-50
2022/03/03 05:15:39;;;;;;;56.20;22.70;;;;;;;1.48;67.90;101786.31;5029627;28;20037;-48
2022/03/03 05:18:04;;;;;;;58.33;23.45;;;;;;;1.45;68.31;101783.00;5034706;28;20392;-51
2022/03/03 05:20:30;;;;;;;56.58;23.35;;;;;;;1.47;67.79;101787.25;5033921;28;20461;-49
2022/03/03 05:22:55;;;;;;;58.60;24.13;;;;;;;1.48;67.91;101794.28;5034803;28;20117;-49
2022/03/03 05:25:21;;;;;;;59.63;22.35;;;;;;;1.50;67.76;101784.44;5033365;28;20041;-48
2022/03/03 05:27:46;;;;;;;57.78;22.30;;;;;;;1.51;68.05;101785.28;5033857;28;20152;-50
2022/03/03 05:30:12;;;;;;;56.70;22.75;;;;;;;1.50;67.87;101779.13;5033612;28;20029;-49
2022/03/03 05:32:37;;;;;;;82.80;25.45;;;;;;;1.49;67.89;101789.81;5033935;28;20041;-48
2022/03/03 05:35:06;;;;;;;57.60;22.75;;;;;;;1.43;67.76;101777.81;5033086;28;20037;-50
2022/03/03 05:37:32;;;;;;;58.63;23.23;;;;;;;1.40;67.79;101780.66;5033980;28;20029;-48
2022/03/03 05:39:58;;;;;;;60.13;23.10;;;;;;;1.41;67.99;101784.16;5033921;28;20032;-51
2022/03/03 05:42:24;;;;;;;57.05;22.33;;;;;;;1.38;68.47;101777.25;5032667;28;20033;-48
2022/03/03 05:44:51;;;;;;;68.60;24.27;;;;;;;1.38;68.10;101776.41;5030323;28;20029;-50
2022/03/03 05:47:16;;;;;;;64.45;24.15;;;;;;;1.38;68.42;101774.59;5033492;28;20030;-50
2022/03/03 05:49:48;;;;;;;60.05;24.58;;;;;;;1.32;68.50;101775.00;5027348;28;20046;-48
2022/03/03 05:52:13;;;;;;;63.95;25.48;;;;;;;1.34;68.57;101775.75;5032922;28;20017;-48
2022/03/03 05:54:39;;;;;;;57.72;23.08;;;;;;;1.29;68.76;101772.53;5033156;28;20059;-49
2022/03/03 05:57:17;;;;;;;85.25;24.88;;;;;;;1.29;69.29;101775.19;5031025;28;20477;-48
2022/03/03 05:59:43;;;;;;;58.40;22.73;;;;;;;1.32;68.98;101775.00;5024581;28;20430;-48
2022/03/03 06:02:10;;;;;;;64.63;24.70;;;;;;;1.35;69.02;101776.63;5027558;28;20026;-47
2022/03/03 06:04:38;;;;;;;62.90;23.23;;;;;;;1.35;69.09;101781.94;5027255;28;20047;-48
2022/03/03 06:07:06;;;;;;;56.55;23.35;;;;;;;1.34;69.10;101785.50;5029449;28;20021;-47
2022/03/03 06:09:33;;;;;;;61.70;23.75;;;;;;;1.28;69.53;101784.94;5030318;28;20497;-47
2022/03/03 06:12:10;;;;;;;63.55;24.40;;;;;;;1.25;69.65;101786.97;5030576;28;20394;-47
2022/03/03 06:14:40;;;;;;;68.03;24.55;;;;;;;1.27;69.83;101788.56;5030407;28;20026;-50
2022/03/03 06:17:06;;;;;;;56.78;23.80;;;;;;;1.26;69.59;101789.53;5028743;28;20029;-48
2022/03/03 06:19:39;;;;;;;62.55;24.15;;;;;;;1.26;69.87;101796.59;5029839;28;20029;-48
2022/03/03 06:22:04;;;;;;;59.17;23.80;;;;;;;1.22;69.99;101787.16;5019191;28;20029;-47
2022/03/03 06:24:30;;;;;;;53.72;23.02;;;;;;;1.22;70.22;101788.00;5028655;28;20044;-46
2022/03/03 06:26:55;;;;;;;76.85;24.85;;;;;;;1.22;70.07;101800.41;5027825;28;20033;-47
2022/03/03 06:29:21;;;;;;;70.47;25.17;;;;;;;1.21;69.65;101788.97;5010327;28;20033;-47
2022/03/03 06:31:46;;;;;;;67.85;25.67;;;;;;;1.20;70.35;101797.00;5024711;28;20787;-48
2022/03/03 06:34:11;;;;;;;66.30;26.13;;;;;;;1.25;69.90;101787.81;5015941;28;20057;-49
2022/03/03 06:36:37;;;;;;;61.70;23.98;;;;;;;1.31;69.97;101794.50;5028855;28;20021;-48
2022/03/03 06:39:03;;;;;;;60.13;22.95;;;;;;;1.31;69.85;101791.84;5026436;28;20038;-48
2022/03/03 06:41:29;;;;;;;77.68;25.38;;;;;;;1.37;69.27;101795.91;5023276;28;20044;-48
2022/03/03 06:43:54;;;;;;;74.38;24.73;;;;;;;1.42;69.84;101789.38;5029097;28;20515;-48
2022/03/03 06:46:21;;;;;;;70.00;25.65;;;;;;;1.63;70.09;101784.44;5028925;28;20485;-48
2022/03/03 06:48:47;;;;;;;68.80;24.38;;;;;;;1.89;69.50;101788.03;5028894;28;20046;-47
2022/03/03 06:51:17;;;;;;;66.60;24.17;;;;;;;2.26;68.82;101793.50;5028344;28;20353;-47
2022/03/03 06:53:45;;;;;;;67.38;24.30;;;;;;;2.51;68.26;101794.50;5029103;28;20052;-47
2022/03/03 06:56:12;;;;;;;61.53;25.23;;;;;;;2.68;66.74;101791.50;5009488;28;20405;-49
2022/03/03 06:58:38;;;;;;;55.08;24.02;;;;;;;2.99;64.80;101794.66;5018008;28;20022;-50
2022/03/03 07:01:09;;;;;;;54.15;22.98;;;;;;;3.29;63.25;101799.59;5030836;28;20039;-48
2022/03/03 07:03:35;;;;;;;58.97;23.42;;;;;;;3.28;62.14;101806.72;5032049;28;20032;-48
2022/03/03 07:06:02;;;;;;;50.88;23.65;;;;;;;3.36;61.41;101803.50;5032005;28;20549;-48
2022/03/03 07:08:28;;;;;;;47.83;21.80;;;;;;;3.51;61.63;101801.56;5032772;28;20048;-48
2022/03/03 07:10:53;;;;;;;50.83;22.35;;;;;;;3.44;61.94;101800.28;5031904;28;20037;-50
2022/03/03 07:13:19;;;;;;;54.28;24.00;;;;;;;3.36;62.02;101808.81;5031158;28;20034;-49
2022/03/03 07:15:49;;;;;;;51.35;21.58;;;;;;;3.51;61.09;101801.56;5030614;28;20030;-49
2022/03/03 07:18:21;;;;;;;53.15;21.58;;;;;;;3.69;61.04;101800.19;5014269;28;20057;-48
2022/03/03 07:21:05;;;;;;;50.20;21.35;;;;;;;3.76;60.15;101805.06;5020902;28;20037;-48
2022/03/03 07:23:37;;;;;;;49.88;20.77;;;;;;;3.67;60.50;101807.44;5018506;28;20044;-47
2022/03/03 07:26:05;;;;;;;48.17;21.58;;;;;;;3.90;61.07;101812.88;5027893;28;20047;-47
2022/03/03 07:28:31;;;;;;;49.13;21.08;;;;;;;4.00;59.59;101815.69;5032124;28;20091;-49
2022/03/03 07:31:00;;;;;;;42.55;21.08;;;;;;;4.26;59.13;101816.38;5030883;28;20053;-50
2022/03/03 07:33:50;;;;;;;45.55;21.33;;;;;;;4.84;57.36;101819.84;5030094;28;20112;-47
2022/03/03 07:36:21;;;;;;;45.10;21.15;;;;;;;5.19;56.02;101816.22;5029503;28;20604;-48
2022/03/03 07:38:58;;;;;;;43.50;21.17;;;;;;;5.22;55.05;101810.66;5016827;28;20044;-49
2022/03/03 07:41:25;;;;;;;49.28;22.30;;;;;;;5.39;54.65;101820.78;5031670;28;20056;-48
2022/03/03 07:43:52;;;;;;;46.10;20.48;;;;;;;5.47;54.39;101810.34;5031387;28;20422;-47
2022/03/03 07:46:17;;;;;;;40.67;19.92;;;;;;;5.59;53.80;101810.31;5031752;28;20119;-47
2022/03/03 07:48:45;;;;;;;39.45;20.67;;;;;;;5.90;53.47;101804.16;5031330;28;20219;-47
2022/03/03 07:51:10;;;;;;;45.17;21.02;;;;;;;6.30;53.08;101819.53;5031433;28;20517;-48
2022/03/03 07:53:36;;;;;;;39.22;21.02;;;;;;;6.49;51.52;101812.63;5035343;28;20139;-48
2022/03/03 07:56:04;;;;;;;40.10;21.63;;;;;;;7.59;48.67;101807.41;5035985;28;20069;-48
2022/03/03 07:58:32;;;;;;;33.80;18.67;;;;;;;7.95;47.00;101819.25;5035991;28;20663;-47
2022/03/03 08:00:59;;;;;;;39.13;20.55;;;;;;;7.84;47.02;101814.03;5035391;28;20037;-48
2022/03/03 08:03:25;;;;;;;42.67;20.67;;;;;;;8.95;45.88;101816.16;5035396;28;20416;-48
2022/03/03 08:05:57;;;;;;;34.97;20.25;;;;;;;9.45;43.05;101813.09;5035241;28;20088;-47
2022/03/03 08:08:26;;;;;;;36.78;19.58;;;;;;;9.84;43.01;101820.84;5034895;28;20470;-49
2022/03/03 08:10:56;;;;;;;37.85;20.40;;;;;;;10.48;42.83;101828.84;5034604;28;20048;-48
2022/03/03 08:13:23;;;;;;;40.85;20.20;;;;;;;10.53;40.67;101822.00;5035164;28;20096;-46
2022/03/03 08:15:49;;;;;;;32.83;18.90;;;;;;;10.84;41.24;101817.97;5033383;28;20362;-47
2022/03/03 08:18:14;;;;;;;35.35;18.90;;;;;;;11.55;39.08;101822.97;5033821;28;20021;-48
2022/03/03 08:20:40;;;;;;;36.28;19.50;;;;;;;11.10;39.11;101816.06;5033805;28;20112;-48
2022/03/03 08:23:07;;;;;;;37.15;20.05;;;;;;;10.99;40.44;101833.38;5036106;28;20436;-49
2022/03/03 08:25:33;;;;;;;36.00;20.35;;;;;;;11.43;39.51;101824.31;5030854;28;20048;-47
2022/03/03 08:27:59;;;;;;;31.60;18.92;;;;;;;12.77;37.39;101824.06;5034761;28;20033;-48
2022/03/03 08:30:24;;;;;;;33.65;19.33;;;;;;;13.51;35.17;101821.13;5034548;28;20032;-48
2022/03/03 08:33:12;;;;;;;36.88;18.98;;;;;;;13.42;35.28;101828.41;5034679;28;20053;-48
2022/03/03 08:35:39;;;;;;;;;;;;;;;12.78;36.28;101831.13;5035184;28;20385;-48
2022/03/03 08:38:10;;;;;;;35.05;19.85;;;;;;;13.27;35.49;101822.91;5033711;28;19913;-48
2022/03/03 08:40:36;;;;;;;35.08;18.70;;;;;;;13.97;34.31;101831.97;5034419;28;20048;-48
2022/03/03 08:43:04;;;;;;;36.13;19.73;;;;;;;13.13;34.39;101837.13;5034369;28;20470;-48
2022/03/03 08:45:31;;;;;;;37.28;19.58;;;;;;;13.63;34.02;101825.09;5033648;28;20037;-48
2022/03/03 08:47:57;;;;;;;34.20;19.13;;;;;;;14.08;33.08;101828.84;5033674;28;20029;-48
2022/03/03 08:50:25;;;;;;;37.08;19.90;;;;;;;13.69;33.23;101826.22;5033772;28;20499;-47
2022/03/03 08:52:52;;;;;;;35.55;19.67;;;;;;;14.02;33.41;101826.84;5029988;28;20057;-47
2022/03/03 08:55:17;;;;;;;37.72;20.27;;;;;;;14.33;32.17;101828.66;5032361;28;20500;-47
2022/03/03 08:57:43;;;;;;;38.20;20.00;;;;;;;13.82;33.18;101832.75;5034172;28;20045;-47
2022/03/03 09:00:10;;;;;;;38.92;20.13;;;;;;;14.75;32.08;101821.84;5034077;28;20045;-47
2022/03/03 09:02:36;;;;;;;37.28;20.27;;;;;;;15.41;30.30;101843.63;5033583;28;20041;-48
2022/03/03 09:05:03;;;;;;;33.10;19.73;;;;;;;14.36;30.87;101836.41;5033349;28;20083;-46
2022/03/03 09:07:28;;;;;;;33.60;20.80;;;;;;;14.59;32.55;101831.00;5033276;28;20067;-47
2022/03/03 09:09:54;;;;;;;35.05;20.55;;;;;;;14.75;30.66;101844.38;5033212;28;20056;-48
2022/03/03 09:12:20;;;;;;;43.53;21.00;;;;;;;13.72;32.28;101844.84;5033772;28;20025;-49
2022/03/03 09:14:46;;;;;;;41.55;20.40;;;;;;;14.12;31.69;101849.13;5033727;28;20477;-47
2022/03/03 09:17:11;;;;;;;35.53;20.38;;;;;;;13.35;32.68;101849.91;5033700;28;20049;-47
2022/03/03 09:19:37;;;;;;;35.72;20.90;;;;;;;13.40;31.76;101838.53;5033613;28;20033;-48
2022/03/03 09:22:03;;;;;;;33.33;19.65;;;;;;;13.46;32.07;101842.44;5032373;28;20393;-49
2022/03/03 09:24:29;;;;;;;37.22;19.52;;;;;;;13.49;31.54;101858.31;5031793;28;20034;-48
2022/03/03 09:26:54;;;;;;;36.13;19.67;;;;;;;12.98;33.05;101844.25;5033256;28;20105;-49
2022/03/03 09:29:21;;;;;;;32.72;19.13;;;;;;;11.77;34.61;101839.53;5033028;28;20037;-49
2022/03/03 09:31:46;;;;;;;41.60;20.42;;;;;;;13.28;33.34;101850.78;5030756;28;20025;-49
2022/03/03 09:34:12;;;;;;;30.85;19.52;;;;;;;12.74;33.73;101833.34;5032934;28;20112;-48
2022/03/03 09:36:37;;;;;;;38.17;18.98;;;;;;;12.73;33.72;101836.22;5032890;28;20025;-48
2022/03/03 09:39:03;;;;;;;33.33;18.73;;;;;;;12.74;32.91;101827.09;5033124;28;20029;-47
2022/03/03 09:41:29;;;;;;;39.05;18.08;;;;;;;12.92;33.63;101825.00;5032919;28;20029;-47
2022/03/03 09:43:57;;;;;;;37.65;19.00;;;;;;;12.43;33.93;101841.31;5033210;28;20029;-48
2022/03/03 09:46:22;;;;;;;;;;;;;;;11.89;34.47;101829.31;5033698;28;20036;-49
2022/03/03 09:48:47;;;;;;;32.60;18.60;;;;;;;12.12;35.79;101822.25;5034811;28;19917;-48
2022/03/03 09:51:13;;;;;;;33.45;18.00;;;;;;;12.01;34.11;101826.13;5032955;28;20397;-47
2022/03/03 09:53:40;;;;;;;31.13;18.27;;;;;;;12.91;34.43;101828.75;5032982;28;20433;-48
2022/03/03 09:56:05;;;;;;;31.80;18.15;;;;;;;12.48;33.06;101817.38;5032108;28;20036;-49
2022/03/03 09:58:31;;;;;;;40.75;18.92;;;;;;;12.80;33.77;101833.69;5032648;28;20061;-48
2022/03/03 10:00:56;;;;;;;32.15;18.15;;;;;;;12.81;34.10;101828.09;5033067;28;20079;-48
2022/03/03 10:03:22;;;;;;;36.95;17.38;;;;;;;12.76;33.86;101829.63;5032752;28;20064;-49
2022/03/03 10:05:52;;;;;;;32.22;16.98;;;;;;;12.81;33.18;101836.19;5032870;28;20546;-48
2022/03/03 10:08:20;;;;;;;33.40;17.00;;;;;;;12.54;34.07;101826.63;5033123;28;20041;-49
2022/03/03 10:10:50;;;;;;;38.42;17.48;;;;;;;12.90;32.84;101832.47;5032468;28;20159;-49
2022/03/03 10:13:17;;;;;;;31.90;17.55;;;;;;;12.65;32.92;101828.13;5032119;28;20051;-49
2022/03/03 10:15:51;;;;;;;40.67;18.15;;;;;;;12.40;33.04;101830.88;5031229;28;20075;-48
2022/03/03 10:18:18;;;;;;;33.22;17.20;;;;;;;11.91;33.50;101825.44;5032204;28;20033;-48
2022/03/03 10:20:58;;;;;;;31.08;17.75;;;;;;;11.98;33.97;101821.06;5032744;28;20080;-48
2022/03/03 10:23:28;;;;;;;33.67;17.48;;;;;;;12.14;33.18;101831.03;5032030;28;20033;-49
2022/03/03 10:25:56;;;;;;;30.10;15.82;;;;;;;11.83;33.46;101822.72;5024955;28;20456;-49
2022/03/03 10:28:42;;;;;;;33.25;16.67;;;;;;;11.80;33.77;101833.84;5032254;28;20025;-47
2022/03/03 10:31:21;;;;;;;30.33;16.50;;;;;;;11.97;33.60;101819.38;5013148;28;20073;-48
2022/03/03 10:33:49;;;;;;;32.88;16.33;;;;;;;12.17;32.88;101819.06;5027828;28;20029;-47
2022/03/03 10:36:22;;;;;;;35.70;17.23;;;;;;;12.13;33.22;101823.09;5027325;28;20116;-48
2022/03/03 10:38:51;;;;;;;30.95;16.30;;;;;;;11.93;33.83;101809.94;5028896;28;20417;-49
2022/03/03 10:41:40;;;;;;;30.10;15.85;;;;;;;11.92;33.21;101818.19;5031755;28;20025;-48
2022/03/03 10:44:13;;;;;;;29.73;16.50;;;;;;;12.22;32.60;101817.53;5029954;28;20440;-48
2022/03/03 10:47:01;;;;;;;31.13;16.75;;;;;;;11.77;33.36;101821.53;5031500;28;20052;-50
2022/03/03 10:49:27;;;;;;;29.88;15.98;;;;;;;11.39;34.71;101815.69;5029755;28;20049;-48
2022/03/03 10:51:52;;;;;;;26.85;16.00;;;;;;;11.96;34.48;101816.88;5031786;28;20022;-47
2022/03/03 10:54:18;;;;;;;30.50;15.60;;;;;;;12.05;32.91;101832.88;5031789;28;20440;-48
2022/03/03 10:56:48;;;;;;;32.35;15.93;;;;;;;11.60;34.13;101817.09;5032081;28;20036;-48
2022/03/03 10:59:24;;;;;;;32.45;16.90;;;;;;;11.63;34.79;101812.19;5032274;28;20025;-49
2022/03/03 11:01:51;;;;;;;31.13;16.40;;;;;;;11.71;33.33;101810.53;5026206;28;20655;-48
2022/03/03 11:04:18;;;;;;;36.53;16.95;;;;;;;11.92;33.36;101810.94;5031561;28;20025;-47
2022/03/03 11:06:43;;;;;;;26.95;15.70;;;;;;;11.98;32.64;101812.13;5031913;28;20080;-48
2022/03/03 11:09:09;;;;;;;33.35;15.90;;;;;;;12.00;32.65;101808.25;5031813;28;20021;-48
2022/03/03 11:11:34;;;;;;;29.77;16.00;;;;;;;12.34;31.84;101809.94;5030620;28;20029;-48
2022/03/03 11:14:00;;;;;;;33.00;16.20;;;;;;;12.16;32.58;101803.88;5031947;28;20040;-48
2022/03/03 11:16:26;;;;;;;36.75;16.83;;;;;;;12.15;32.84;101796.78;5031618;28;20026;-48